This is the latest recevied weather packets stored in our database for station/object K0CVS. If no packets are shown the sender has not sent any weather packets the latest 10 day(s).
| Time | Temp. | Humidity | Pressure | Rain* | Wind** | Luminosity | Snow |
|---|---|---|---|---|---|---|---|
| 1777880007 | 17.78° C | 50% | 1006 hPa | 0 mm | - | 0 W/m² | - |
| 1777879706 | 17.78° C | 50% | 1006.1 hPa | 0 mm | - | 0 W/m² | - |
| 1777879402 | 18.33° C | 50% | 1006 hPa | 0 mm | - | 0 W/m² | - |
| 1777879099 | 18.33° C | 49% | 1006.3 hPa | 0 mm | - | 0 W/m² | - |
| 1777878796 | 18.89° C | 48% | 1006.2 hPa | 0 mm | - | 0 W/m² | - |
| 1777878494 | 18.89° C | 47% | 1006.3 hPa | 0 mm | - | 0 W/m² | - |
| 1777878190 | 19.44° C | 46% | 1006.4 hPa | 0 mm | - | 0 W/m² | - |
| 1777877886 | 19.44° C | 46% | 1006.5 hPa | 0 mm | - | 0 W/m² | - |
| 1777877583 | 19.44° C | 45% | 1006.4 hPa | 0 mm | - | 0 W/m² | - |
| 1777877279 | 19.44° C | 45% | 1006.8 hPa | 0 mm | - | 0 W/m² | - |
| 1777876977 | 19.44° C | 45% | 1006.8 hPa | 0 mm | - | 0 W/m² | - |
| 1777876675 | 19.44° C | 46% | 1006.9 hPa | 0 mm | - | 0 W/m² | - |
| 1777876372 | 19.44° C | 46% | 1007 hPa | 0 mm | - | 0 W/m² | - |
| 1777876068 | 18.89° C | 46% | 1007.2 hPa | 0 mm | - | 0 W/m² | - |
| 1777875764 | 18.89° C | 47% | 1007.3 hPa | 0 mm | - | 0 W/m² | - |
| 1777875460 | 19.44° C | 47% | 1007.1 hPa | 0 mm | - | 0 W/m² | - |
| 1777875157 | 19.44° C | 46% | 1007.4 hPa | 0 mm | - | 0 W/m² | - |
| 1777874855 | 20° C | 45% | 1007.3 hPa | 0 mm | - | 0 W/m² | - |
| 1777874550 | 20° C | 45% | 1007.2 hPa | 0 mm | - | 0 W/m² | - |
| 1777874248 | 20° C | 45% | 1007.3 hPa | 0 mm | - | 0 W/m² | - |
| 1777873945 | 20.56° C | 44% | 1007.3 hPa | 0 mm | - | 0 W/m² | - |
| 1777873641 | 20.56° C | 43% | 1007.2 hPa | 0 mm | - | 0 W/m² | - |
| 1777873339 | 20° C | 43% | 1007.5 hPa | 0 mm | - | 0 W/m² | - |
| 1777873036 | 20° C | 45% | 1007.5 hPa | 0 mm | - | 0 W/m² | - |
| 1777872732 | 20° C | 45% | 1007.7 hPa | 0 mm | - | 0 W/m² | - |
* Rain latest hour (hover to see other rain measurements)
** Current wind speed in m/s (hover to see current wind gust speed)